createdAt,value
2022-12-09T07:36:09.062Z,15.18
2022-12-09T07:38:35.700Z,13.63
2022-12-09T07:41:07.074Z,15.18
2022-12-09T07:43:35.329Z,14.30
2022-12-09T07:46:09.203Z,13.90
2022-12-09T07:48:36.155Z,13.32
2022-12-09T07:51:04.728Z,11.20
2022-12-09T07:53:34.030Z,14.65
2022-12-09T07:56:06.662Z,12.20
2022-12-09T07:58:34.248Z,10.35
2022-12-09T08:01:14.154Z,11.43
2022-12-09T08:03:42.613Z,11.57
2022-12-09T08:06:14.332Z,10.43
2022-12-09T08:08:42.935Z,9.98
2022-12-09T08:11:21.885Z,10.52
2022-12-09T08:13:49.849Z,11.27
2022-12-09T08:16:19.607Z,10.27
2022-12-09T08:18:47.990Z,12.13
2022-12-09T08:21:18.384Z,11.57
2022-12-09T08:23:45.672Z,10.65
2022-12-09T08:26:13.832Z,10.43
2022-12-09T08:28:41.244Z,12.32
2022-12-09T08:31:10.428Z,11.15
2022-12-09T08:33:37.677Z,9.80
2022-12-09T08:36:13.043Z,10.75
2022-12-09T08:38:40.095Z,11.02
2022-12-09T08:41:10.559Z,10.77
2022-12-09T08:43:38.884Z,11.52
2022-12-09T08:46:07.024Z,12.85
2022-12-09T08:48:37.251Z,13.07
2022-12-09T08:51:05.135Z,12.68
2022-12-09T08:53:32.302Z,11.52
2022-12-09T08:55:59.151Z,11.77
2022-12-09T08:58:25.904Z,12.95
2022-12-09T09:00:52.819Z,11.32
2022-12-09T09:03:20.354Z,12.40
2022-12-09T09:05:47.622Z,13.50
2022-12-09T09:08:15.119Z,11.63
2022-12-09T09:10:41.941Z,11.35
2022-12-09T09:13:08.986Z,12.00
2022-12-09T09:15:39.717Z,12.32
2022-12-09T09:18:07.006Z,10.48
2022-12-09T09:20:33.783Z,11.15
2022-12-09T09:23:03.332Z,12.02
2022-12-09T09:25:30.802Z,11.80
2022-12-09T09:27:57.824Z,9.55
2022-12-09T09:30:24.609Z,9.68
2022-12-09T09:32:51.328Z,9.88
2022-12-09T09:35:18.809Z,9.93
2022-12-09T09:37:45.871Z,9.98
2022-12-09T09:40:13.440Z,10.07
2022-12-09T09:42:49.989Z,9.35
2022-12-09T09:45:20.067Z,9.60
2022-12-09T09:48:01.022Z,8.25
2022-12-09T09:50:47.896Z,9.75
2022-12-09T09:53:26.832Z,8.82
2022-12-09T09:56:00.829Z,8.35
2022-12-09T09:58:47.281Z,8.90
2022-12-09T10:01:18.161Z,10.02
2022-12-09T10:04:01.683Z,8.57
2022-12-09T10:06:50.359Z,8.68
2022-12-09T10:09:43.657Z,8.18
2022-12-09T10:12:24.018Z,8.90
2022-12-09T10:14:59.118Z,9.70
2022-12-09T10:17:38.336Z,7.93
2022-12-09T10:20:11.800Z,8.60
2022-12-09T10:22:48.944Z,9.13
2022-12-09T10:25:28.378Z,7.72
2022-12-09T10:28:29.870Z,7.45
2022-12-09T10:30:57.533Z,8.48
2022-12-09T10:33:32.607Z,9.57
2022-12-09T10:36:00.793Z,8.82
2022-12-09T10:38:30.316Z,9.88
2022-12-09T10:41:02.872Z,10.50
2022-12-09T10:43:37.429Z,9.10
2022-12-09T10:46:22.862Z,11.55
2022-12-09T10:48:50.435Z,10.93
2022-12-09T10:51:18.641Z,11.32
2022-12-09T10:54:06.466Z,9.17
2022-12-09T10:56:36.707Z,9.95
2022-12-09T10:59:22.487Z,8.60
2022-12-09T11:01:59.728Z,9.13
2022-12-09T11:04:34.250Z,8.80
2022-12-09T11:07:07.725Z,8.73
2022-12-09T11:09:37.631Z,9.07
2022-12-09T11:12:07.012Z,8.18
2022-12-09T11:14:40.483Z,7.50
2022-12-09T11:17:23.491Z,7.15
2022-12-09T11:20:21.621Z,7.47
2022-12-09T11:23:11.623Z,8.05
2022-12-09T11:25:39.211Z,7.38
2022-12-09T11:28:18.076Z,7.10
2022-12-09T11:33:55.625Z,7.38
2022-12-09T11:36:34.273Z,7.10
2022-12-09T11:39:14.797Z,7.43
2022-12-09T11:42:07.362Z,6.97
2022-12-09T11:44:38.394Z,7.70
2022-12-09T11:47:13.691Z,9.70
2022-12-09T11:50:03.324Z,7.75
2022-12-09T11:52:31.176Z,7.68
2022-12-09T11:55:13.161Z,7.65
2022-12-09T11:57:45.642Z,7.75
2022-12-09T12:00:22.625Z,7.60
2022-12-09T12:03:02.361Z,8.55
2022-12-09T12:05:42.287Z,6.55
2022-12-09T12:08:11.735Z,6.57
2022-12-09T12:10:46.896Z,7.65
2022-12-09T12:13:27.663Z,6.30
2022-12-09T12:16:06.246Z,6.53
2022-12-09T12:19:05.847Z,6.75
2022-12-09T12:21:56.061Z,7.10
2022-12-09T12:24:34.806Z,6.45
2022-12-09T12:27:19.308Z,6.63
2022-12-09T12:29:57.746Z,6.07
2022-12-09T12:32:37.557Z,5.68
2022-12-09T12:35:31.712Z,5.00
2022-12-09T12:38:19.700Z,4.68
2022-12-09T12:41:13.447Z,5.40
2022-12-09T12:44:10.917Z,5.13
2022-12-09T12:46:52.927Z,6.05
2022-12-09T12:49:51.541Z,4.65
2022-12-09T12:52:55.544Z,5.43
2022-12-09T12:55:44.375Z,4.78
2022-12-09T12:58:27.724Z,5.85
2022-12-09T13:01:05.345Z,4.20
2022-12-09T13:03:56.840Z,5.22
2022-12-09T13:07:11.338Z,4.25
2022-12-09T13:09:49.185Z,5.13
2022-12-09T13:12:40.909Z,4.75
2022-12-09T13:15:14.708Z,6.80
2022-12-09T13:17:42.932Z,6.88
2022-12-09T13:20:34.539Z,7.03
2022-12-09T13:23:03.944Z,5.57
2022-12-09T13:26:06.976Z,5.05
2022-12-09T13:28:48.983Z,6.47
2022-12-09T13:31:20.361Z,5.88
2022-12-09T13:33:50.772Z,6.07
2022-12-09T13:36:36.255Z,7.70
2022-12-09T13:39:04.424Z,6.97
2022-12-09T13:41:30.929Z,5.50
2022-12-09T13:44:06.674Z,6.80
2022-12-09T13:46:34.400Z,6.22
2022-12-09T13:49:17.481Z,6.35
2022-12-09T13:51:48.337Z,4.63
2022-12-09T13:54:17.631Z,4.95
2022-12-09T13:56:47.632Z,6.18
2022-12-09T13:59:39.809Z,5.40
2022-12-09T14:02:24.380Z,5.93
2022-12-09T14:05:03.720Z,6.07
2022-12-09T14:07:43.220Z,5.65
2022-12-09T14:10:39.173Z,6.25
2022-12-09T14:13:23.544Z,6.80
2022-12-09T14:16:18.053Z,5.90
2022-12-09T14:18:45.173Z,10.82
2022-12-09T14:21:17.861Z,7.30
2022-12-09T14:24:09.099Z,7.72
2022-12-09T14:26:44.482Z,10.90
2022-12-09T14:29:11.463Z,9.20
2022-12-09T14:31:51.462Z,9.30
2022-12-09T14:34:26.810Z,9.07
2022-12-09T14:37:08.391Z,8.23
2022-12-09T14:39:47.650Z,6.82
2022-12-09T14:42:53.457Z,8.02
2022-12-09T14:45:42.052Z,6.97
2022-12-09T14:48:12.498Z,7.28
2022-12-09T14:50:39.477Z,7.03
2022-12-09T14:53:19.458Z,7.35
2022-12-09T14:55:46.481Z,6.10
2022-12-09T14:58:21.791Z,7.20
2022-12-09T15:00:59.575Z,7.93
2022-12-09T15:03:39.614Z,8.75
2022-12-09T15:06:18.079Z,7.43
2022-12-09T15:08:45.412Z,6.93
2022-12-09T15:11:16.646Z,8.35
2022-12-09T15:13:47.633Z,6.90
2022-12-09T15:16:18.871Z,6.25
2022-12-09T15:18:46.427Z,6.78
2022-12-09T15:21:29.398Z,7.00
2022-12-09T15:23:57.623Z,7.75
2022-12-09T15:26:28.184Z,6.50
2022-12-09T15:28:56.673Z,6.60
2022-12-09T15:31:26.929Z,6.35
2022-12-09T15:33:56.589Z,5.90
2022-12-09T15:36:37.193Z,6.85
2022-12-09T15:39:11.363Z,7.40
2022-12-09T15:42:05.606Z,6.78
2022-12-09T15:44:36.750Z,8.10
2022-12-09T15:47:15.627Z,8.63
2022-12-09T15:49:50.657Z,7.07
2022-12-09T15:52:20.588Z,8.00
2022-12-09T15:54:48.004Z,8.52
2022-12-09T15:57:18.528Z,7.03
2022-12-09T15:59:55.482Z,8.07
2022-12-09T16:02:32.874Z,7.13
2022-12-09T16:05:03.691Z,7.30
2022-12-09T16:07:33.445Z,7.78
2022-12-09T16:10:26.905Z,8.98
2022-12-09T16:13:12.517Z,9.45
2022-12-09T16:15:54.217Z,6.90
2022-12-09T16:18:24.938Z,7.70
2022-12-09T16:21:16.282Z,6.80
2022-12-09T16:23:49.680Z,7.60
2022-12-09T16:26:23.926Z,7.95
2022-12-09T16:29:05.516Z,8.02
2022-12-09T16:31:32.620Z,9.88
2022-12-09T16:33:59.669Z,9.15
2022-12-09T16:36:29.410Z,8.80
2022-12-09T16:39:07.994Z,8.35
2022-12-09T16:41:53.035Z,9.90
2022-12-09T16:44:31.879Z,10.20
2022-12-09T16:47:25.044Z,6.93
2022-12-09T16:49:52.227Z,8.98
2022-12-09T16:52:28.480Z,10.00
2022-12-09T16:54:55.080Z,9.20
2022-12-09T16:57:21.743Z,8.20
2022-12-09T16:59:48.385Z,8.70
2022-12-09T17:02:38.645Z,7.80
2022-12-09T17:05:06.396Z,8.13
2022-12-09T17:07:33.773Z,7.00
2022-12-09T17:10:00.318Z,4.88
2022-12-09T17:12:27.018Z,7.75
2022-12-09T17:14:53.712Z,8.25
2022-12-09T17:17:20.448Z,7.25
2022-12-09T17:19:46.994Z,6.43
2022-12-09T17:22:13.624Z,5.85
2022-12-09T17:24:40.373Z,5.72
2022-12-09T17:27:06.982Z,6.13
2022-12-09T17:29:33.608Z,4.50
2022-12-09T17:32:00.262Z,4.70
2022-12-09T17:34:26.942Z,4.18
2022-12-09T17:36:55.206Z,6.18
2022-12-09T17:39:24.561Z,5.70
2022-12-09T17:41:51.179Z,4.30
2022-12-09T17:44:17.888Z,5.03
2022-12-09T17:46:44.423Z,5.05
2022-12-09T17:49:11.084Z,5.20
2022-12-09T17:51:37.675Z,4.45
2022-12-09T17:54:04.824Z,3.92
2022-12-09T17:56:31.810Z,5.15
2022-12-09T17:59:04.835Z,5.03
2022-12-09T18:01:34.062Z,3.97
2022-12-09T18:04:07.652Z,5.40
2022-12-09T18:06:36.138Z,6.28
2022-12-09T18:09:05.124Z,5.25
2022-12-09T18:11:32.144Z,4.82
2022-12-09T18:13:58.926Z,5.18
2022-12-09T18:16:25.767Z,5.03
2022-12-09T18:18:52.813Z,5.50
2022-12-09T18:21:20.039Z,5.32
2022-12-09T18:23:48.324Z,4.68
2022-12-09T18:26:17.737Z,4.70
2022-12-09T18:28:44.726Z,5.32
2022-12-09T18:31:13.959Z,14.15
2022-12-09T18:33:41.331Z,5.60
2022-12-09T18:36:26.215Z,5.72
2022-12-09T18:38:54.003Z,5.82
2022-12-09T18:41:30.159Z,5.15
2022-12-09T18:43:59.106Z,5.60
2022-12-09T18:46:28.566Z,9.88
2022-12-09T18:49:13.088Z,9.18
2022-12-09T18:51:41.771Z,8.52
2022-12-09T18:54:09.122Z,5.35
2022-12-09T18:56:37.046Z,4.25
2022-12-09T18:59:06.863Z,5.55
2022-12-09T19:01:39.450Z,5.05
2022-12-09T19:04:10.558Z,5.45
2022-12-09T19:06:39.753Z,4.35
2022-12-09T19:09:21.986Z,4.43
2022-12-09T19:11:49.986Z,4.95
2022-12-09T19:14:17.961Z,4.55
2022-12-09T19:16:46.054Z,4.82
2022-12-09T19:19:16.116Z,5.00
2022-12-09T19:21:43.719Z,5.60
2022-12-09T19:24:17.868Z,5.95
2022-12-09T19:26:44.826Z,4.55
2022-12-09T19:29:13.018Z,5.20
2022-12-09T19:31:45.409Z,5.07
2022-12-09T19:34:15.458Z,5.13
2022-12-09T19:36:43.100Z,5.07
2022-12-09T19:39:12.269Z,5.65
2022-12-09T19:44:05.686Z,5.05
2022-12-09T19:46:33.251Z,6.47
2022-12-09T19:49:00.709Z,7.30
2022-12-09T19:51:27.869Z,5.22
2022-12-09T19:53:59.603Z,5.00
2022-12-09T19:56:27.351Z,5.18
2022-12-09T19:58:55.273Z,4.78
2022-12-09T20:01:27.804Z,6.43
2022-12-09T20:04:25.347Z,6.10
2022-12-09T20:06:55.035Z,5.70
2022-12-09T20:09:24.426Z,6.75
2022-12-09T20:11:53.014Z,7.20
2022-12-09T20:14:19.811Z,12.23
2022-12-09T20:16:46.481Z,6.53
2022-12-09T20:19:13.259Z,9.95
2022-12-09T20:21:40.620Z,6.65
2022-12-09T20:24:09.770Z,6.03
2022-12-09T20:29:07.474Z,4.38
2022-12-09T20:31:35.913Z,4.90
2022-12-09T20:34:06.281Z,5.18
2022-12-09T20:36:35.126Z,5.25
2022-12-09T20:39:12.489Z,5.15
2022-12-09T20:41:39.793Z,5.35
2022-12-09T20:44:06.468Z,5.22
2022-12-09T20:46:33.661Z,4.72
2022-12-09T20:49:01.133Z,4.93
2022-12-09T20:51:32.020Z,3.90
2022-12-09T20:53:59.302Z,4.55
2022-12-09T20:56:27.134Z,5.65
2022-12-09T20:58:54.948Z,7.65
2022-12-09T21:01:27.331Z,5.82
2022-12-09T21:03:55.452Z,5.65
2022-12-09T21:06:25.154Z,6.70
2022-12-09T21:08:53.770Z,5.80
2022-12-09T21:11:22.939Z,6.15
2022-12-09T21:13:52.695Z,6.20
2022-12-09T21:16:22.352Z,5.50
2022-12-09T21:18:50.836Z,6.38
2022-12-09T21:21:18.697Z,5.82
2022-12-09T21:23:45.951Z,5.82
2022-12-09T21:26:15.505Z,6.38
2022-12-09T21:28:43.838Z,5.63
2022-12-09T21:31:11.813Z,5.72
2022-12-09T21:33:39.726Z,6.63
2022-12-09T21:36:09.006Z,5.47
2022-12-09T21:38:36.371Z,8.13
2022-12-09T21:41:08.690Z,6.82
2022-12-09T21:43:36.252Z,7.75
2022-12-09T21:46:04.403Z,7.95
2022-12-09T21:48:31.432Z,5.78
2022-12-09T21:50:59.299Z,5.60
2022-12-09T21:53:25.997Z,6.00
2022-12-09T21:55:53.556Z,6.93
2022-12-09T21:58:20.934Z,6.50
2022-12-09T22:00:47.549Z,8.48
2022-12-09T22:03:14.093Z,9.18
2022-12-09T22:05:40.692Z,9.50
2022-12-09T22:08:07.471Z,7.22
2022-12-09T22:10:36.887Z,6.97
2022-12-09T22:13:03.879Z,7.43
2022-12-09T22:15:31.400Z,6.22
2022-12-09T22:17:58.063Z,6.53
2022-12-09T22:23:11.830Z,6.15
2022-12-09T22:25:39.295Z,5.75
2022-12-09T22:28:05.998Z,6.10
2022-12-09T22:30:36.134Z,5.88
2022-12-09T22:33:03.288Z,6.03
2022-12-09T22:35:30.121Z,7.25
2022-12-09T22:37:59.222Z,8.70
2022-12-09T22:40:26.292Z,7.57
2022-12-09T22:42:52.806Z,8.25
2022-12-09T22:45:19.436Z,7.82
2022-12-09T22:47:46.260Z,11.05
2022-12-09T22:50:13.119Z,11.13
2022-12-09T22:52:39.910Z,11.82
2022-12-09T22:55:06.959Z,9.73
2022-12-09T22:57:33.547Z,10.27
2022-12-09T23:00:00.157Z,12.52
2022-12-09T23:02:26.893Z,13.27
2022-12-09T23:04:53.716Z,16.42
2022-12-09T23:07:20.555Z,13.82
2022-12-09T23:09:47.220Z,14.55
2022-12-09T23:12:14.244Z,12.82
2022-12-09T23:14:40.964Z,15.95
2022-12-09T23:17:07.870Z,14.73
2022-12-09T23:19:35.279Z,13.52
2022-12-09T23:22:02.015Z,13.15
2022-12-09T23:24:28.648Z,16.10
2022-12-09T23:26:56.202Z,14.75
2022-12-09T23:29:23.167Z,15.30
2022-12-09T23:31:50.015Z,14.57
2022-12-09T23:34:16.857Z,14.48
2022-12-09T23:36:44.969Z,14.10
2022-12-09T23:39:16.715Z,13.85
2022-12-09T23:41:44.843Z,15.40
2022-12-09T23:44:16.109Z,13.40
2022-12-09T23:46:43.120Z,14.38
2022-12-09T23:49:09.862Z,14.55
2022-12-09T23:51:39.635Z,14.50
2022-12-09T23:54:08.011Z,16.52
2022-12-09T23:56:38.948Z,17.35
2022-12-09T23:59:09.580Z,16.60
